sensor_id;sensor_type;location;lat;lon;timestamp;pressure;altitude;pressure_sealevel;temperature;humidity
73455;BME280;61690;51.824;6.306;2023-07-13T00:00:41;101329.94;;;22.93;52.86
73455;BME280;61690;51.824;6.306;2023-07-13T00:03:06;101320.28;;;22.92;53.24
73455;BME280;61690;51.824;6.306;2023-07-13T00:05:33;101330.91;;;22.92;53.06
73455;BME280;61690;51.824;6.306;2023-07-13T00:07:59;101330.06;;;22.92;53.23
73455;BME280;61690;51.824;6.306;2023-07-13T00:10:24;101335.47;;;22.90;53.19
73455;BME280;61690;51.824;6.306;2023-07-13T00:12:49;101338.13;;;22.90;53.39
73455;BME280;61690;51.824;6.306;2023-07-13T00:15:23;101339.91;;;22.89;53.18
73455;BME280;61690;51.824;6.306;2023-07-13T00:17:53;101340.91;;;22.88;53.25
73455;BME280;61690;51.824;6.306;2023-07-13T00:20:21;101338.25;;;22.88;53.42
73455;BME280;61690;51.824;6.306;2023-07-13T00:22:48;101335.59;;;22.88;53.26
73455;BME280;61690;51.824;6.306;2023-07-13T00:25:13;101332.09;;;22.88;53.12
73455;BME280;61690;51.824;6.306;2023-07-13T00:27:39;101339.19;;;22.87;53.00
73455;BME280;61690;51.824;6.306;2023-07-13T00:30:06;101333.06;;;22.87;53.20
73455;BME280;61690;51.824;6.306;2023-07-13T00:32:32;101337.53;;;22.86;53.20
73455;BME280;61690;51.824;6.306;2023-07-13T00:34:58;101346.31;;;22.87;53.01
73455;BME280;61690;51.824;6.306;2023-07-13T00:37:25;101344.66;;;22.86;52.92
73455;BME280;61690;51.824;6.306;2023-07-13T00:39:51;101338.47;;;22.85;53.09
73455;BME280;61690;51.824;6.306;2023-07-13T00:42:16;101347.31;;;22.86;53.02
73455;BME280;61690;51.824;6.306;2023-07-13T00:47:38;101340.28;;;22.85;53.03
73455;BME280;61690;51.824;6.306;2023-07-13T00:50:07;101340.28;;;22.85;53.01
73455;BME280;61690;51.824;6.306;2023-07-13T00:52:35;101343.88;;;22.84;52.92
73455;BME280;61690;51.824;6.306;2023-07-13T00:55:01;101344.75;;;22.84;53.21
73455;BME280;61690;51.824;6.306;2023-07-13T00:57:31;101338.59;;;22.84;53.10
73455;BME280;61690;51.824;6.306;2023-07-13T00:59:58;101345.69;;;22.83;53.18
73455;BME280;61690;51.824;6.306;2023-07-13T01:02:26;101345.69;;;22.83;53.02
73455;BME280;61690;51.824;6.306;2023-07-13T01:04:51;101350.19;;;22.83;53.24
73455;BME280;61690;51.824;6.306;2023-07-13T01:07:18;101351.13;;;22.82;52.99
73455;BME280;61690;51.824;6.306;2023-07-13T01:09:44;101345.81;;;22.82;53.02
73455;BME280;61690;51.824;6.306;2023-07-13T01:12:11;101342.31;;;22.81;53.23
73455;BME280;61690;51.824;6.306;2023-07-13T01:14:38;101341.50;;;22.81;52.92
73455;BME280;61690;51.824;6.306;2023-07-13T01:17:05;101343.31;;;22.80;53.25
73455;BME280;61690;51.824;6.306;2023-07-13T01:22:06;101345.97;;;22.80;53.24
73455;BME280;61690;51.824;6.306;2023-07-13T01:24:34;101338.94;;;22.79;52.96
73455;BME280;61690;51.824;6.306;2023-07-13T01:27:00;101343.41;;;22.79;52.98
73455;BME280;61690;51.824;6.306;2023-07-13T01:29:25;101340.66;;;22.80;53.38
73455;BME280;61690;51.824;6.306;2023-07-13T01:31:53;101339.06;;;22.78;53.33
73455;BME280;61690;51.824;6.306;2023-07-13T01:34:20;101339.06;;;22.78;53.01
73455;BME280;61690;51.824;6.306;2023-07-13T01:36:45;101344.38;;;22.78;52.93
73455;BME280;61690;51.824;6.306;2023-07-13T01:39:11;101339.06;;;22.78;53.21
73455;BME280;61690;51.824;6.306;2023-07-13T01:41:37;101336.53;;;22.76;53.38
73455;BME280;61690;51.824;6.306;2023-07-13T01:44:04;101334.72;;;22.77;53.29
73455;BME280;61690;51.824;6.306;2023-07-13T01:46:29;101332.09;;;22.77;53.21
73455;BME280;61690;51.824;6.306;2023-07-13T01:48:54;101329.44;;;22.77;52.79
73455;BME280;61690;51.824;6.306;2023-07-13T01:51:20;101330.38;;;22.76;53.25
73455;BME280;61690;51.824;6.306;2023-07-13T01:53:46;101334.00;;;22.75;52.88
73455;BME280;61690;51.824;6.306;2023-07-13T01:56:11;101339.31;;;22.75;52.92
73455;BME280;61690;51.824;6.306;2023-07-13T01:58:36;101333.13;;;22.74;53.00
73455;BME280;61690;51.824;6.306;2023-07-13T02:01:01;101340.25;;;22.74;53.01
73455;BME280;61690;51.824;6.306;2023-07-13T02:03:27;101342.91;;;22.74;53.16
73455;BME280;61690;51.824;6.306;2023-07-13T02:05:52;101334.22;;;22.71;53.39
73455;BME280;61690;51.824;6.306;2023-07-13T02:08:18;101327.09;;;22.72;53.09
73455;BME280;61690;51.824;6.306;2023-07-13T02:10:43;101333.41;;;22.71;53.07
73455;BME280;61690;51.824;6.306;2023-07-13T02:13:08;101343.16;;;22.70;53.18
73455;BME280;61690;51.824;6.306;2023-07-13T02:15:33;101332.56;;;22.70;53.03
73455;BME280;61690;51.824;6.306;2023-07-13T02:17:59;101332.56;;;22.70;53.03
73455;BME280;61690;51.824;6.306;2023-07-13T02:20:25;101335.22;;;22.70;53.11
73455;BME280;61690;51.824;6.306;2023-07-13T02:22:51;101346.75;;;22.69;53.14
73455;BME280;61690;51.824;6.306;2023-07-13T02:25:16;101341.47;;;22.69;53.03
73455;BME280;61690;51.824;6.306;2023-07-13T02:27:42;101341.47;;;22.69;53.03
73455;BME280;61690;51.824;6.306;2023-07-13T02:30:08;101349.41;;;22.69;52.89
73455;BME280;61690;51.824;6.306;2023-07-13T02:32:33;101339.75;;;22.68;53.09
73455;BME280;61690;51.824;6.306;2023-07-13T02:34:59;101340.72;;;22.67;53.09
73455;BME280;61690;51.824;6.306;2023-07-13T02:37:24;101343.38;;;22.67;53.07
73455;BME280;61690;51.824;6.306;2023-07-13T02:39:49;101341.69;;;22.66;52.81
73455;BME280;61690;51.824;6.306;2023-07-13T02:42:15;101343.38;;;22.67;53.02
73455;BME280;61690;51.824;6.306;2023-07-13T02:44:40;101340.84;;;22.66;52.96
73455;BME280;61690;51.824;6.306;2023-07-13T02:47:06;101352.28;;;22.66;53.02
73455;BME280;61690;51.824;6.306;2023-07-13T02:49:31;101343.50;;;22.66;53.14
73455;BME280;61690;51.824;6.306;2023-07-13T02:51:56;101341.81;;;22.65;52.99
73455;BME280;61690;51.824;6.306;2023-07-13T02:54:21;101343.59;;;22.64;52.81
73455;BME280;61690;51.824;6.306;2023-07-13T02:56:47;101346.25;;;22.64;53.11
73455;BME280;61690;51.824;6.306;2023-07-13T02:59:12;101340.13;;;22.64;53.01
73455;BME280;61690;51.824;6.306;2023-07-13T03:01:37;101347.25;;;22.63;53.09
73455;BME280;61690;51.824;6.306;2023-07-13T03:04:03;101352.53;;;22.63;52.93
73455;BME280;61690;51.824;6.306;2023-07-13T03:06:31;101350.72;;;22.64;53.07
73455;BME280;61690;51.824;6.306;2023-07-13T03:08:57;101357.00;;;22.63;52.95
73455;BME280;61690;51.824;6.306;2023-07-13T03:11:22;101357.84;;;22.63;53.06
73455;BME280;61690;51.824;6.306;2023-07-13T03:13:50;101356.13;;;22.62;52.79
73455;BME280;61690;51.824;6.306;2023-07-13T03:16:15;101360.59;;;22.62;52.98
73455;BME280;61690;51.824;6.306;2023-07-13T03:18:41;101361.44;;;22.62;52.87
73455;BME280;61690;51.824;6.306;2023-07-13T03:21:07;101369.41;;;22.62;53.06
73455;BME280;61690;51.824;6.306;2023-07-13T03:23:34;101373.97;;;22.60;52.81
73455;BME280;61690;51.824;6.306;2023-07-13T03:26:15;101381.81;;;22.62;52.69
73455;BME280;61690;51.824;6.306;2023-07-13T03:28:41;101376.63;;;22.60;52.71
73455;BME280;61690;51.824;6.306;2023-07-13T03:31:13;101368.66;;;22.60;52.78
73455;BME280;61690;51.824;6.306;2023-07-13T03:33:39;101368.66;;;22.60;53.12
73455;BME280;61690;51.824;6.306;2023-07-13T03:36:06;101381.91;;;22.60;53.04
73455;BME280;61690;51.824;6.306;2023-07-13T03:38:35;101377.59;;;22.59;53.01
73455;BME280;61690;51.824;6.306;2023-07-13T03:41:00;101381.19;;;22.58;52.87
73455;BME280;61690;51.824;6.306;2023-07-13T03:43:26;101378.53;;;22.58;52.96
73455;BME280;61690;51.824;6.306;2023-07-13T03:45:52;101383.84;;;22.58;53.04
73455;BME280;61690;51.824;6.306;2023-07-13T03:48:17;101381.19;;;22.58;53.22
73455;BME280;61690;51.824;6.306;2023-07-13T03:50:42;101383.97;;;22.57;53.15
73455;BME280;61690;51.824;6.306;2023-07-13T03:53:07;101375.16;;;22.56;53.20
73455;BME280;61690;51.824;6.306;2023-07-13T03:55:33;101383.13;;;22.56;52.92
73455;BME280;61690;51.824;6.306;2023-07-13T04:00:53;101386.75;;;22.55;53.23
73455;BME280;61690;51.824;6.306;2023-07-13T04:03:18;101388.53;;;22.55;52.97
73455;BME280;61690;51.824;6.306;2023-07-13T04:05:44;101391.19;;;22.55;53.16
73455;BME280;61690;51.824;6.306;2023-07-13T04:08:09;101388.63;;;22.53;53.06
73455;BME280;61690;51.824;6.306;2023-07-13T04:10:34;101394.81;;;22.54;53.30
73455;BME280;61690;51.824;6.306;2023-07-13T04:13:00;101389.50;;;22.54;53.11
73455;BME280;61690;51.824;6.306;2023-07-13T04:15:29;101383.34;;;22.53;52.93
73455;BME280;61690;51.824;6.306;2023-07-13T04:17:55;101388.63;;;22.53;53.04
73455;BME280;61690;51.824;6.306;2023-07-13T04:20:20;101391.28;;;22.53;52.84
73455;BME280;61690;51.824;6.306;2023-07-13T04:22:47;101392.25;;;22.52;53.24
73455;BME280;61690;51.824;6.306;2023-07-13T04:25:13;101393.94;;;22.53;52.93
73455;BME280;61690;51.824;6.306;2023-07-13T04:27:38;101393.94;;;22.53;52.91
73455;BME280;61690;51.824;6.306;2023-07-13T04:30:05;101387.81;;;22.52;53.11
73455;BME280;61690;51.824;6.306;2023-07-13T04:32:31;101399.25;;;22.53;53.01
73455;BME280;61690;51.824;6.306;2023-07-13T04:34:57;101402.75;;;22.54;53.08
73455;BME280;61690;51.824;6.306;2023-07-13T04:37:26;101407.19;;;22.53;52.86
73455;BME280;61690;51.824;6.306;2023-07-13T04:39:51;101410.81;;;22.52;53.03
73455;BME280;61690;51.824;6.306;2023-07-13T04:42:17;101416.13;;;22.52;52.00
73455;BME280;61690;51.824;6.306;2023-07-13T04:44:50;101416.03;;;22.54;50.84
73455;BME280;61690;51.824;6.306;2023-07-13T04:47:16;101415.28;;;22.51;50.93
73455;BME280;61690;51.824;6.306;2023-07-13T04:49:41;101414.41;;;22.51;50.80
73455;BME280;61690;51.824;6.306;2023-07-13T04:52:08;101417.94;;;22.51;50.47
73455;BME280;61690;51.824;6.306;2023-07-13T04:54:34;101417.22;;;22.49;50.21
73455;BME280;61690;51.824;6.306;2023-07-13T04:57:00;101412.84;;;22.48;49.84
73455;BME280;61690;51.824;6.306;2023-07-13T04:59:25;101417.78;;;22.42;48.26
73455;BME280;61690;51.824;6.306;2023-07-13T05:01:53;101423.53;;;22.23;48.72
73455;BME280;61690;51.824;6.306;2023-07-13T05:04:18;101425.25;;;22.11;48.33
73455;BME280;61690;51.824;6.306;2023-07-13T05:06:44;101429.53;;;22.01;48.86
73455;BME280;61690;51.824;6.306;2023-07-13T05:09:09;101436.34;;;21.92;49.04
73455;BME280;61690;51.824;6.306;2023-07-13T05:11:34;101438.66;;;21.84;49.06
73455;BME280;61690;51.824;6.306;2023-07-13T05:14:00;101439.94;;;21.78;49.45
73455;BME280;61690;51.824;6.306;2023-07-13T05:16:26;101437.44;;;21.77;49.13
73455;BME280;61690;51.824;6.306;2023-07-13T05:18:53;101434.34;;;21.70;49.14
73455;BME280;61690;51.824;6.306;2023-07-13T05:21:19;101441.25;;;21.60;49.40
73455;BME280;61690;51.824;6.306;2023-07-13T05:23:45;101439.97;;;21.52;49.87
73455;BME280;61690;51.824;6.306;2023-07-13T05:26:12;101456.06;;;21.49;49.74
73455;BME280;61690;51.824;6.306;2023-07-13T05:28:37;101453.91;;;21.42;49.92
73455;BME280;61690;51.824;6.306;2023-07-13T05:31:04;101449.03;;;21.35;50.04
73455;BME280;61690;51.824;6.306;2023-07-13T05:33:30;101453.69;;;21.32;50.50
73455;BME280;61690;51.824;6.306;2023-07-13T05:35:55;101458.56;;;21.25;50.34
73455;BME280;61690;51.824;6.306;2023-07-13T05:38:21;101456.22;;;21.21;50.51
73455;BME280;61690;51.824;6.306;2023-07-13T05:40:46;101454.00;;;21.14;51.14
73455;BME280;61690;51.824;6.306;2023-07-13T05:43:12;101455.16;;;21.10;51.27
73455;BME280;61690;51.824;6.306;2023-07-13T05:45:40;101460.44;;;21.10;51.61
73455;BME280;61690;51.824;6.306;2023-07-13T05:48:05;101464.25;;;21.06;51.76
73455;BME280;61690;51.824;6.306;2023-07-13T05:50:31;101471.00;;;20.98;51.89
73455;BME280;61690;51.824;6.306;2023-07-13T05:52:56;101471.41;;;20.91;52.20
73455;BME280;61690;51.824;6.306;2023-07-13T05:55:22;101470.75;;;20.88;52.49
73455;BME280;61690;51.824;6.306;2023-07-13T05:57:47;101469.88;;;20.74;53.18
73455;BME280;61690;51.824;6.306;2023-07-13T06:00:13;101473.88;;;20.67;53.69
73455;BME280;61690;51.824;6.306;2023-07-13T06:02:38;101476.22;;;20.57;54.19
73455;BME280;61690;51.824;6.306;2023-07-13T06:05:04;101479.91;;;20.55;54.09
73455;BME280;61690;51.824;6.306;2023-07-13T06:07:30;101477.78;;;20.47;54.35
73455;BME280;61690;51.824;6.306;2023-07-13T06:09:55;101488.75;;;20.41;54.81
73455;BME280;61690;51.824;6.306;2023-07-13T06:12:24;101496.19;;;20.49;54.84
73455;BME280;61690;51.824;6.306;2023-07-13T06:14:49;101497.75;;;20.51;54.73
73455;BME280;61690;51.824;6.306;2023-07-13T06:17:15;101492.56;;;20.50;54.53
73455;BME280;61690;51.824;6.306;2023-07-13T06:19:40;101491.28;;;20.43;55.00
73455;BME280;61690;51.824;6.306;2023-07-13T06:22:05;101494.88;;;20.42;55.48
73455;BME280;61690;51.824;6.306;2023-07-13T06:24:31;101499.97;;;20.45;55.53
73455;BME280;61690;51.824;6.306;2023-07-13T06:26:56;101499.75;;;20.48;55.20
73455;BME280;61690;51.824;6.306;2023-07-13T06:29:23;101511.28;;;20.47;55.41
73455;BME280;61690;51.824;6.306;2023-07-13T06:31:48;101517.31;;;20.49;55.49
73455;BME280;61690;51.824;6.306;2023-07-13T06:34:14;101514.50;;;20.52;55.43
73455;BME280;61690;51.824;6.306;2023-07-13T06:36:39;101522.59;;;20.49;56.04
73455;BME280;61690;51.824;6.306;2023-07-13T06:39:06;101518.38;;;20.46;56.07
73455;BME280;61690;51.824;6.306;2023-07-13T06:41:32;101524.19;;;20.51;55.91
73455;BME280;61690;51.824;6.306;2023-07-13T06:43:58;101524.94;;;20.53;55.97
73455;BME280;61690;51.824;6.306;2023-07-13T06:46:23;101519.78;;;20.52;56.01
73455;BME280;61690;51.824;6.306;2023-07-13T06:48:49;101519.97;;;20.49;56.71
73455;BME280;61690;51.824;6.306;2023-07-13T06:51:15;101522.78;;;20.46;56.61
73455;BME280;61690;51.824;6.306;2023-07-13T06:53:40;101525.44;;;20.46;56.98
73455;BME280;61690;51.824;6.306;2023-07-13T06:56:06;101520.53;;;20.54;56.59
73455;BME280;61690;51.824;6.306;2023-07-13T06:58:33;101522.03;;;20.58;56.20
73455;BME280;61690;51.824;6.306;2023-07-13T07:00:59;101518.81;;;20.53;56.57
73455;BME280;61690;51.824;6.306;2023-07-13T07:03:25;101530.63;;;20.47;56.82
73455;BME280;61690;51.824;6.306;2023-07-13T07:05:52;101534.31;;;20.45;57.20
73455;BME280;61690;51.824;6.306;2023-07-13T07:08:18;101534.22;;;20.46;56.99
73455;BME280;61690;51.824;6.306;2023-07-13T07:10:43;101541.19;;;20.47;57.03
73455;BME280;61690;51.824;6.306;2023-07-13T07:13:10;101541.69;;;20.40;57.29
73455;BME280;61690;51.824;6.306;2023-07-13T07:15:37;101540.84;;;20.39;57.30
73455;BME280;61690;51.824;6.306;2023-07-13T07:18:03;101548.09;;;20.35;57.39
73455;BME280;61690;51.824;6.306;2023-07-13T07:20:28;101544.72;;;20.33;57.49
73455;BME280;61690;51.824;6.306;2023-07-13T07:22:55;101539.13;;;20.38;57.49
73455;BME280;61690;51.824;6.306;2023-07-13T07:25:21;101546.31;;;20.36;57.63
73455;BME280;61690;51.824;6.306;2023-07-13T07:27:46;101552.47;;;20.36;57.68
73455;BME280;61690;51.824;6.306;2023-07-13T07:30:15;101549.81;;;20.36;57.59
73455;BME280;61690;51.824;6.306;2023-07-13T07:32:41;101554.13;;;20.37;57.52
73455;BME280;61690;51.824;6.306;2023-07-13T07:35:07;101540.84;;;20.39;57.68
73455;BME280;61690;51.824;6.306;2023-07-13T07:37:33;101543.19;;;20.44;57.55
73455;BME280;61690;51.824;6.306;2023-07-13T07:39:59;101548.94;;;20.50;57.61
73455;BME280;61690;51.824;6.306;2023-07-13T07:42:24;101545.06;;;20.56;57.50
73455;BME280;61690;51.824;6.306;2023-07-13T07:44:51;101548.94;;;20.50;57.39
73455;BME280;61690;51.824;6.306;2023-07-13T07:47:18;101550.94;;;20.47;57.12
73455;BME280;61690;51.824;6.306;2023-07-13T07:49:43;101550.72;;;20.50;57.68
73455;BME280;61690;51.824;6.306;2023-07-13T07:52:09;101546.97;;;20.54;57.90
73455;BME280;61690;51.824;6.306;2023-07-13T07:54:34;101547.88;;;20.53;57.04
73455;BME280;61690;51.824;6.306;2023-07-13T07:56:59;101551.19;;;20.42;58.12
73455;BME280;61690;51.824;6.306;2023-07-13T07:59:27;101547.53;;;20.45;57.96
73455;BME280;61690;51.824;6.306;2023-07-13T08:01:53;101549.13;;;20.47;58.12
73455;BME280;61690;51.824;6.306;2023-07-13T08:04:18;101556.88;;;20.50;58.18
73455;BME280;61690;51.824;6.306;2023-07-13T08:06:44;101548.84;;;20.52;57.94
73455;BME280;61690;51.824;6.306;2023-07-13T08:09:09;101549.78;;;20.51;57.48
73455;BME280;61690;51.824;6.306;2023-07-13T08:11:34;101553.34;;;20.50;57.78
73455;BME280;61690;51.824;6.306;2023-07-13T08:14:00;101543.94;;;20.46;57.84
73455;BME280;61690;51.824;6.306;2023-07-13T08:16:25;101546.69;;;20.44;57.62
73455;BME280;61690;51.824;6.306;2023-07-13T08:18:51;101545.81;;;20.44;57.71
73455;BME280;61690;51.824;6.306;2023-07-13T08:21:16;101541.41;;;20.44;58.21
73455;BME280;61690;51.824;6.306;2023-07-13T08:23:42;101545.63;;;20.47;58.39
73455;BME280;61690;51.824;6.306;2023-07-13T08:26:08;101547.13;;;20.51;57.86
73455;BME280;61690;51.824;6.306;2023-07-13T08:28:33;101551.38;;;20.53;57.84
73455;BME280;61690;51.824;6.306;2023-07-13T08:31:04;101554.13;;;20.52;57.39
73455;BME280;61690;51.824;6.306;2023-07-13T08:33:33;101553.34;;;20.50;57.57
73455;BME280;61690;51.824;6.306;2023-07-13T08:35:59;101550.34;;;20.56;57.51
73455;BME280;61690;51.824;6.306;2023-07-13T08:38:24;101555.28;;;20.62;57.10
73455;BME280;61690;51.824;6.306;2023-07-13T08:40:53;101556.38;;;20.58;57.39
73455;BME280;61690;51.824;6.306;2023-07-13T08:43:28;101551.28;;;20.55;57.18
73455;BME280;61690;51.824;6.306;2023-07-13T08:49:18;101548.63;;;20.55;57.06
73455;BME280;61690;51.824;6.306;2023-07-13T08:51:51;101551.59;;;20.50;56.91
73455;BME280;61690;51.824;6.306;2023-07-13T08:54:51;101551.50;;;20.52;57.14
73455;BME280;61690;51.824;6.306;2023-07-13T08:57:32;101547.78;;;20.54;56.99
73455;BME280;61690;51.824;6.306;2023-07-13T08:59:58;101547.72;;;20.56;56.64
73455;BME280;61690;51.824;6.306;2023-07-13T09:02:36;101545.06;;;20.56;56.69
73455;BME280;61690;51.824;6.306;2023-07-13T09:05:11;101549.38;;;20.57;57.26
73455;BME280;61690;51.824;6.306;2023-07-13T09:10:44;101551.28;;;20.55;56.75
73455;BME280;61690;51.824;6.306;2023-07-13T09:13:20;101545.06;;;20.56;56.79
73455;BME280;61690;51.824;6.306;2023-07-13T09:15:49;101539.56;;;20.59;56.63
73455;BME280;61690;51.824;6.306;2023-07-13T09:18:34;101530.50;;;20.63;56.75
73455;BME280;61690;51.824;6.306;2023-07-13T09:21:12;101540.16;;;20.64;56.83
73455;BME280;61690;51.824;6.306;2023-07-13T09:23:41;101540.25;;;20.63;56.44
73455;BME280;61690;51.824;6.306;2023-07-13T09:28:39;101544.28;;;20.68;56.11
73455;BME280;61690;51.824;6.306;2023-07-13T09:31:27;101543.25;;;20.71;56.84
73455;BME280;61690;51.824;6.306;2023-07-13T09:33:56;101539.56;;;20.73;56.36
73455;BME280;61690;51.824;6.306;2023-07-13T09:36:27;101540.22;;;20.77;57.11
73455;BME280;61690;51.824;6.306;2023-07-13T09:39:03;101541.63;;;20.83;56.29
73455;BME280;61690;51.824;6.306;2023-07-13T09:44:12;101537.84;;;20.87;56.00
73455;BME280;61690;51.824;6.306;2023-07-13T09:46:43;101534.03;;;20.91;56.15
73455;BME280;61690;51.824;6.306;2023-07-13T09:49:11;101541.00;;;20.92;55.02
73455;BME280;61690;51.824;6.306;2023-07-13T09:51:38;101540.91;;;20.93;55.10
73455;BME280;61690;51.824;6.306;2023-07-13T09:54:04;101538.06;;;20.97;54.68
73455;BME280;61690;51.824;6.306;2023-07-13T09:56:30;101543.16;;;21.00;55.20
73455;BME280;61690;51.824;6.306;2023-07-13T09:58:57;101535.88;;;21.03;54.73
73455;BME280;61690;51.824;6.306;2023-07-13T10:01:38;101542.78;;;21.06;53.95
73455;BME280;61690;51.824;6.306;2023-07-13T10:04:13;101543.59;;;21.06;53.75
73455;BME280;61690;51.824;6.306;2023-07-13T10:06:40;101534.72;;;21.07;53.82
73455;BME280;61690;51.824;6.306;2023-07-13T10:09:09;101530.94;;;21.11;53.00
73455;BME280;61690;51.824;6.306;2023-07-13T10:11:36;101541.31;;;21.14;52.74
73455;BME280;61690;51.824;6.306;2023-07-13T10:16:38;101532.09;;;21.20;52.94
73455;BME280;61690;51.824;6.306;2023-07-13T10:19:11;101547.88;;;21.22;53.05
73455;BME280;61690;51.824;6.306;2023-07-13T10:21:53;101546.19;;;21.21;52.38
73455;BME280;61690;51.824;6.306;2023-07-13T10:27:17;101558.13;;;21.13;51.11
73455;BME280;61690;51.824;6.306;2023-07-13T10:29:49;101562.56;;;21.13;50.82
73455;BME280;61690;51.824;6.306;2023-07-13T10:32:21;101557.41;;;21.11;51.25
73455;BME280;61690;51.824;6.306;2023-07-13T10:34:48;101557.59;;;21.08;52.81
73455;BME280;61690;51.824;6.306;2023-07-13T10:37:20;101562.97;;;21.07;53.83
73455;BME280;61690;51.824;6.306;2023-07-13T10:39:48;101553.22;;;21.07;53.79
73455;BME280;61690;51.824;6.306;2023-07-13T10:42:40;101555.59;;;21.12;53.64
73455;BME280;61690;51.824;6.306;2023-07-13T10:45:17;101553.59;;;21.15;53.35
73455;BME280;61690;51.824;6.306;2023-07-13T10:47:45;101563.31;;;21.15;53.52
73455;BME280;61690;51.824;6.306;2023-07-13T10:50:23;101570.41;;;21.14;53.70
73455;BME280;61690;51.824;6.306;2023-07-13T10:52:53;101573.88;;;21.15;54.57
73455;BME280;61690;51.824;6.306;2023-07-13T10:58:14;101581.72;;;21.17;55.05
73455;BME280;61690;51.824;6.306;2023-07-13T11:01:03;101580.97;;;21.14;55.13
73455;BME280;61690;51.824;6.306;2023-07-13T11:03:31;101582.59;;;21.17;55.51
73455;BME280;61690;51.824;6.306;2023-07-13T11:08:55;101578.16;;;21.18;55.33
73455;BME280;61690;51.824;6.306;2023-07-13T11:18:45;101612.03;;;20.98;57.22
73455;BME280;61690;51.824;6.306;2023-07-13T11:21:18;101625.84;;;20.89;57.99
73455;BME280;61690;51.824;6.306;2023-07-13T11:23:51;101632.81;;;20.90;58.58
73455;BME280;61690;51.824;6.306;2023-07-13T11:29:33;101616.94;;;20.90;58.92
73455;BME280;61690;51.824;6.306;2023-07-13T11:32:21;101616.47;;;20.98;58.37
73455;BME280;61690;51.824;6.306;2023-07-13T11:34:47;101617.88;;;21.03;58.54
73455;BME280;61690;51.824;6.306;2023-07-13T11:37:16;101607.09;;;21.06;58.66
73455;BME280;61690;51.824;6.306;2023-07-13T11:39:44;101615.78;;;21.08;58.55
73455;BME280;61690;51.824;6.306;2023-07-13T11:42:12;101629.09;;;21.07;59.09
73455;BME280;61690;51.824;6.306;2023-07-13T11:44:45;101637.13;;;21.05;59.21
73455;BME280;61690;51.824;6.306;2023-07-13T11:47:22;101628.25;;;21.06;59.57
73455;BME280;61690;51.824;6.306;2023-07-13T11:49:54;101632.59;;;21.07;59.13
73455;BME280;61690;51.824;6.306;2023-07-13T11:52:36;101626.28;;;20.95;58.46
73455;BME280;61690;51.824;6.306;2023-07-13T11:55:08;101630.91;;;20.92;59.52
73455;BME280;61690;51.824;6.306;2023-07-13T11:57:45;101625.84;;;20.89;58.59
73455;BME280;61690;51.824;6.306;2023-07-13T12:00:14;101635.69;;;20.87;59.88
73455;BME280;61690;51.824;6.306;2023-07-13T12:02:44;101640.66;;;20.91;59.57
73455;BME280;61690;51.824;6.306;2023-07-13T12:05:13;101647.09;;;20.87;59.24
73455;BME280;61690;51.824;6.306;2023-07-13T12:07:39;101649.06;;;20.84;59.61
73455;BME280;61690;51.824;6.306;2023-07-13T12:10:26;101636.59;;;20.86;59.95
73455;BME280;61690;51.824;6.306;2023-07-13T12:12:57;101632.06;;;20.88;59.63
73455;BME280;61690;51.824;6.306;2023-07-13T12:15:29;101628.41;;;20.90;59.86
73455;BME280;61690;51.824;6.306;2023-07-13T12:17:56;101632.44;;;20.96;59.72
73455;BME280;61690;51.824;6.306;2023-07-13T12:20:35;101633.94;;;21.00;59.61
73455;BME280;61690;51.824;6.306;2023-07-13T12:23:05;101636.50;;;21.02;59.52
73455;BME280;61690;51.824;6.306;2023-07-13T12:25:31;101627.69;;;21.01;59.45
73455;BME280;61690;51.824;6.306;2023-07-13T12:27:57;101625.78;;;21.03;59.24
73455;BME280;61690;51.824;6.306;2023-07-13T12:30:31;101629.19;;;21.05;59.21
73455;BME280;61690;51.824;6.306;2023-07-13T12:33:11;101624.66;;;21.07;59.29
73455;BME280;61690;51.824;6.306;2023-07-13T12:35:42;101621.06;;;21.08;59.25
73455;BME280;61690;51.824;6.306;2023-07-13T12:38:10;101627.00;;;21.12;59.21
73455;BME280;61690;51.824;6.306;2023-07-13T12:40:38;101618.97;;;21.13;59.34
73455;BME280;61690;51.824;6.306;2023-07-13T12:43:12;101615.59;;;21.11;59.57
73455;BME280;61690;51.824;6.306;2023-07-13T12:45:38;101618.97;;;21.13;59.34
73455;BME280;61690;51.824;6.306;2023-07-13T12:48:10;101608.41;;;21.13;59.36
73455;BME280;61690;51.824;6.306;2023-07-13T12:50:40;101614.34;;;21.17;59.37
73455;BME280;61690;51.824;6.306;2023-07-13T12:53:13;101619.63;;;21.17;59.58
73455;BME280;61690;51.824;6.306;2023-07-13T12:55:45;101621.31;;;21.18;59.60
73455;BME280;61690;51.824;6.306;2023-07-13T12:58:38;101609.81;;;21.19;59.43
73455;BME280;61690;51.824;6.306;2023-07-13T13:01:05;101617.94;;;21.16;59.03
73455;BME280;61690;51.824;6.306;2023-07-13T13:03:35;101613.47;;;21.17;58.88
73455;BME280;61690;51.824;6.306;2023-07-13T13:06:18;101607.25;;;21.18;58.32
73455;BME280;61690;51.824;6.306;2023-07-13T13:08:46;101609.91;;;21.18;58.25
73455;BME280;61690;51.824;6.306;2023-07-13T13:11:15;101609.69;;;21.21;58.78
73455;BME280;61690;51.824;6.306;2023-07-13T13:13:41;101604.19;;;21.24;58.26
73455;BME280;61690;51.824;6.306;2023-07-13T13:18:41;101607.41;;;21.29;58.39
73455;BME280;61690;51.824;6.306;2023-07-13T13:21:09;101611.63;;;21.31;58.06
73455;BME280;61690;51.824;6.306;2023-07-13T13:23:34;101612.38;;;21.33;57.69
73455;BME280;61690;51.824;6.306;2023-07-13T13:26:00;101608.78;;;21.34;57.10
73455;BME280;61690;51.824;6.306;2023-07-13T13:28:25;101608.06;;;21.32;57.29
73455;BME280;61690;51.824;6.306;2023-07-13T13:30:51;101608.66;;;21.36;58.06
73455;BME280;61690;51.824;6.306;2023-07-13T13:33:18;101601.47;;;21.38;57.37
73455;BME280;61690;51.824;6.306;2023-07-13T13:35:44;101604.91;;;21.40;57.26
73455;BME280;61690;51.824;6.306;2023-07-13T13:38:19;101617.91;;;21.43;57.57